createdAt,value
2023-02-11T00:01:38.242Z,15.93
2023-02-11T00:04:11.889Z,15.30
2023-02-11T00:06:47.110Z,16.07
2023-02-11T00:09:20.935Z,15.27
2023-02-11T00:11:54.641Z,16.07
2023-02-11T00:14:28.536Z,15.77
2023-02-11T00:17:02.015Z,15.03
2023-02-11T00:19:35.524Z,15.43
2023-02-11T00:22:11.051Z,16.67
2023-02-11T00:24:44.692Z,15.43
2023-02-11T00:27:19.031Z,15.33
2023-02-11T00:29:52.621Z,14.83
2023-02-11T00:32:28.311Z,14.87
2023-02-11T00:35:01.745Z,14.87
2023-02-11T00:37:37.016Z,15.67
2023-02-11T00:40:12.379Z,14.17
2023-02-11T00:42:45.688Z,15.13
2023-02-11T00:45:21.032Z,14.10
2023-02-11T00:47:54.606Z,14.37
2023-02-11T00:50:28.379Z,13.60
2023-02-11T00:53:03.312Z,14.53
2023-02-11T00:55:36.702Z,14.43
2023-02-11T00:58:10.907Z,14.37
2023-02-11T01:00:44.807Z,13.70
2023-02-11T01:03:18.631Z,13.93
2023-02-11T01:05:52.959Z,14.20
2023-02-11T01:08:28.768Z,14.97
2023-02-11T01:11:06.262Z,14.00
2023-02-11T01:13:40.058Z,13.57
2023-02-11T01:16:14.282Z,13.67
2023-02-11T01:18:47.870Z,12.93
2023-02-11T01:21:21.926Z,12.90
2023-02-11T01:23:57.610Z,13.07
2023-02-11T01:26:31.129Z,13.03
2023-02-11T01:29:04.912Z,13.17
2023-02-11T01:31:38.821Z,13.20
2023-02-11T01:34:12.546Z,13.67
2023-02-11T01:36:46.157Z,13.27
2023-02-11T01:39:21.334Z,12.17
2023-02-11T01:41:55.728Z,12.87
2023-02-11T01:44:32.513Z,13.40
2023-02-11T01:47:07.516Z,13.33
2023-02-11T01:49:45.426Z,12.10
2023-02-11T01:52:24.159Z,12.57
2023-02-11T01:55:21.851Z,11.10
2023-02-11T01:57:59.310Z,12.27
2023-02-11T02:00:38.973Z,13.67
2023-02-11T02:03:19.526Z,13.20
2023-02-11T02:06:01.703Z,11.97
2023-02-11T02:08:42.396Z,11.97
2023-02-11T02:11:17.535Z,11.83
2023-02-11T02:13:51.521Z,11.87
2023-02-11T02:16:33.376Z,12.87
2023-02-11T02:19:44.596Z,12.37
2023-02-11T02:22:54.305Z,11.97
2023-02-11T02:25:58.571Z,12.13
2023-02-11T02:29:16.089Z,12.07
2023-02-11T02:32:23.930Z,13.00
2023-02-11T02:35:07.065Z,11.93
2023-02-11T02:37:50.075Z,12.60
2023-02-11T02:40:33.726Z,11.87
2023-02-11T02:43:11.202Z,13.47
2023-02-11T02:45:45.388Z,12.53
2023-02-11T02:48:29.634Z,14.03
2023-02-11T02:51:24.434Z,12.63
2023-02-11T02:54:21.270Z,13.10
2023-02-11T02:57:02.822Z,13.03
2023-02-11T02:59:54.954Z,12.37
2023-02-11T03:02:36.717Z,12.83
2023-02-11T03:05:19.532Z,12.57
2023-02-11T03:08:02.450Z,13.07
2023-02-11T03:10:42.169Z,12.47
2023-02-11T03:13:19.528Z,11.97
2023-02-11T03:15:58.324Z,12.53
2023-02-11T03:18:34.980Z,12.97
2023-02-11T03:21:12.631Z,12.43
2023-02-11T03:23:53.297Z,12.03
2023-02-11T03:26:34.282Z,12.40
2023-02-11T03:29:18.439Z,12.33
2023-02-11T03:32:03.297Z,12.27
2023-02-11T03:34:45.951Z,13.63
2023-02-11T03:37:27.156Z,12.60
2023-02-11T03:40:08.856Z,12.00
2023-02-11T03:42:50.088Z,11.87
2023-02-11T03:45:27.062Z,12.60
2023-02-11T03:48:08.061Z,13.30
2023-02-11T03:50:43.155Z,12.43
2023-02-11T03:53:21.715Z,11.37
2023-02-11T03:55:59.820Z,11.80
2023-02-11T03:58:33.664Z,12.80
2023-02-11T04:01:10.246Z,12.07
2023-02-11T04:03:43.704Z,13.03
2023-02-11T04:06:17.507Z,12.10
2023-02-11T04:08:52.819Z,11.27
2023-02-11T04:11:26.646Z,12.00
2023-02-11T04:14:00.142Z,11.80
2023-02-11T04:16:33.749Z,11.23
2023-02-11T04:19:08.687Z,12.63
2023-02-11T04:21:42.326Z,11.87
2023-02-11T04:24:17.119Z,13.07
2023-02-11T04:26:50.464Z,11.27
2023-02-11T04:29:24.502Z,12.50
2023-02-11T04:31:58.388Z,12.50
2023-02-11T04:34:32.222Z,12.03
2023-02-11T04:37:06.239Z,12.60
2023-02-11T04:39:41.481Z,12.77
2023-02-11T04:42:14.880Z,12.37
2023-02-11T04:44:48.463Z,12.57
2023-02-11T04:47:22.192Z,13.23
2023-02-11T04:49:55.814Z,12.03
2023-02-11T04:52:29.539Z,13.03
2023-02-11T04:55:04.886Z,13.50
2023-02-11T04:57:38.691Z,12.43
2023-02-11T05:00:13.981Z,12.33
2023-02-11T05:02:49.113Z,12.63
2023-02-11T05:05:22.701Z,12.23
2023-02-11T05:07:56.059Z,12.47
2023-02-11T05:10:31.269Z,13.30
2023-02-11T05:13:05.429Z,11.93
2023-02-11T05:15:39.541Z,13.20
2023-02-11T05:18:15.211Z,11.53
2023-02-11T05:20:49.149Z,12.90
2023-02-11T05:23:22.823Z,12.97
2023-02-11T05:25:58.370Z,11.83
2023-02-11T05:28:32.999Z,13.00
2023-02-11T05:31:07.152Z,11.77
2023-02-11T05:33:40.657Z,12.53
2023-02-11T05:36:15.147Z,12.80
2023-02-11T05:38:48.798Z,13.67
2023-02-11T05:41:24.350Z,13.73
2023-02-11T05:43:57.791Z,13.50
2023-02-11T05:46:31.412Z,12.73
2023-02-11T05:49:05.245Z,13.93
2023-02-11T05:51:38.691Z,13.67
2023-02-11T05:54:12.777Z,13.40
2023-02-11T05:56:48.223Z,14.67
2023-02-11T05:59:22.150Z,13.57
2023-02-11T06:01:56.189Z,14.67
2023-02-11T06:04:30.053Z,13.83
2023-02-11T06:07:03.833Z,13.43
2023-02-11T06:09:38.302Z,14.77
2023-02-11T06:12:12.968Z,15.10
2023-02-11T06:14:47.336Z,14.03
2023-02-11T06:17:22.290Z,14.37
2023-02-11T06:19:55.588Z,14.23
2023-02-11T06:22:29.183Z,15.03
2023-02-11T06:25:02.622Z,15.47
2023-02-11T06:27:38.190Z,15.23
2023-02-11T06:30:13.580Z,15.40
2023-02-11T06:32:47.558Z,14.73
2023-02-11T06:35:22.703Z,15.83
2023-02-11T06:37:56.279Z,15.10
2023-02-11T06:40:29.490Z,16.00
2023-02-11T06:43:04.456Z,15.23
2023-02-11T06:45:37.986Z,15.90
2023-02-11T06:48:11.924Z,15.63
2023-02-11T06:50:45.405Z,14.90
2023-02-11T06:53:19.110Z,15.50
2023-02-11T06:55:52.741Z,15.73
2023-02-11T06:58:28.195Z,14.90
2023-02-11T07:01:01.804Z,16.67
2023-02-11T07:03:36.435Z,16.73
2023-02-11T07:06:12.782Z,17.37
2023-02-11T07:08:47.071Z,16.20
2023-02-11T07:11:24.347Z,16.97
2023-02-11T07:14:04.043Z,16.73
2023-02-11T07:16:38.064Z,15.87
2023-02-11T07:19:11.724Z,18.03
2023-02-11T07:21:45.484Z,17.30
2023-02-11T07:24:19.116Z,17.47
2023-02-11T07:26:52.581Z,17.10
2023-02-11T07:29:27.318Z,17.97
2023-02-11T07:32:03.409Z,17.80
2023-02-11T07:34:37.496Z,18.37
2023-02-11T07:37:11.156Z,19.23
2023-02-11T07:39:44.563Z,19.87
2023-02-11T07:42:18.418Z,17.97
2023-02-11T07:44:53.837Z,16.27
2023-02-11T07:47:27.433Z,18.17
2023-02-11T07:50:00.980Z,18.00
2023-02-11T07:52:34.827Z,19.23
2023-02-11T07:55:09.222Z,19.20
2023-02-11T07:57:43.274Z,18.40
2023-02-11T08:00:21.202Z,19.80
2023-02-11T08:02:54.864Z,18.80
2023-02-11T08:05:28.825Z,20.70
2023-02-11T08:08:02.333Z,19.70
2023-02-11T08:10:37.338Z,20.40
2023-02-11T08:13:10.692Z,18.67
2023-02-11T08:15:46.305Z,18.50
2023-02-11T08:18:19.792Z,20.13
2023-02-11T08:20:54.910Z,19.27
2023-02-11T08:23:28.550Z,18.40
2023-02-11T08:26:04.403Z,18.80
2023-02-11T08:28:39.724Z,17.67
2023-02-11T08:31:20.509Z,17.40
2023-02-11T08:33:58.312Z,19.33
2023-02-11T08:36:34.654Z,18.47
2023-02-11T08:39:21.400Z,19.40
2023-02-11T08:41:58.263Z,20.60
2023-02-11T08:44:32.241Z,21.13
2023-02-11T08:47:07.426Z,20.77
2023-02-11T08:49:42.402Z,19.87
2023-02-11T08:52:18.029Z,20.67
2023-02-11T08:54:52.580Z,20.90
2023-02-11T08:57:26.264Z,21.47
2023-02-11T09:00:01.250Z,21.83
2023-02-11T09:02:36.451Z,21.70
2023-02-11T09:05:10.159Z,21.53
2023-02-11T09:07:45.220Z,21.30
2023-02-11T09:10:18.623Z,21.73
2023-02-11T09:12:52.641Z,22.90
2023-02-11T09:15:26.005Z,21.27
2023-02-11T09:18:01.155Z,21.27
2023-02-11T09:20:35.284Z,20.63
2023-02-11T09:23:09.602Z,22.10
2023-02-11T09:25:43.856Z,20.13
2023-02-11T09:28:17.392Z,20.53
2023-02-11T09:30:51.454Z,20.83
2023-02-11T09:33:27.274Z,20.83
2023-02-11T09:36:03.014Z,21.97
2023-02-11T09:38:39.474Z,22.67
2023-02-11T09:41:50.384Z,21.40
2023-02-11T09:44:29.099Z,20.37
2023-02-11T09:47:07.561Z,22.03
2023-02-11T09:49:50.886Z,20.83
2023-02-11T09:52:39.520Z,21.77
2023-02-11T09:55:31.830Z,22.00
2023-02-11T09:58:13.687Z,23.03
2023-02-11T10:00:58.773Z,22.67
2023-02-11T10:04:04.350Z,23.13
2023-02-11T10:06:44.397Z,21.80
2023-02-11T10:09:48.108Z,21.70
2023-02-11T10:12:48.839Z,20.43
2023-02-11T10:15:38.127Z,21.83
2023-02-11T10:18:41.755Z,21.07
2023-02-11T10:21:29.985Z,21.40
2023-02-11T10:24:13.659Z,22.33
2023-02-11T10:26:48.891Z,20.60
2023-02-11T10:29:40.251Z,20.80
2023-02-11T10:32:29.070Z,21.73
2023-02-11T10:35:14.667Z,21.27
2023-02-11T10:37:49.217Z,21.57
2023-02-11T10:40:28.551Z,21.00
2023-02-11T10:43:09.127Z,21.63
2023-02-11T10:45:49.205Z,21.03
2023-02-11T10:48:44.043Z,21.67
2023-02-11T10:51:23.256Z,19.93
2023-02-11T10:54:19.560Z,20.50
2023-02-11T10:57:01.861Z,20.87
2023-02-11T10:59:40.427Z,20.33
2023-02-11T11:02:26.334Z,19.67
2023-02-11T11:05:05.245Z,20.30
2023-02-11T11:07:39.076Z,21.57
2023-02-11T11:10:43.293Z,20.50
2023-02-11T11:13:38.328Z,21.30
2023-02-11T11:16:34.461Z,20.60
2023-02-11T11:19:23.874Z,19.87
2023-02-11T11:21:58.192Z,23.50
2023-02-11T11:24:36.341Z,23.10
2023-02-11T11:27:22.251Z,22.50
2023-02-11T11:29:59.192Z,23.40
2023-02-11T11:32:37.359Z,24.10
2023-02-11T11:35:28.628Z,23.30
2023-02-11T11:38:06.280Z,30.33
2023-02-11T11:40:40.297Z,27.97
2023-02-11T11:43:23.086Z,25.77
2023-02-11T11:46:02.919Z,23.20
2023-02-11T11:48:43.848Z,23.67
2023-02-11T11:51:18.451Z,23.33
2023-02-11T11:53:59.634Z,24.07
2023-02-11T11:56:38.401Z,24.77
2023-02-11T11:59:16.687Z,23.53
2023-02-11T12:02:28.388Z,23.30
2023-02-11T12:05:10.996Z,22.37
2023-02-11T12:08:03.643Z,21.70
2023-02-11T12:11:08.300Z,21.27
2023-02-11T12:14:00.840Z,22.80
2023-02-11T12:16:49.712Z,23.10
2023-02-11T12:20:00.346Z,23.63
2023-02-11T12:22:49.091Z,24.63
2023-02-11T12:25:29.205Z,25.47
2023-02-11T12:28:21.709Z,23.73
2023-02-11T12:31:16.125Z,24.43
2023-02-11T12:34:31.959Z,24.63
2023-02-11T12:37:24.227Z,25.40
2023-02-11T12:40:16.520Z,24.13
2023-02-11T12:43:19.976Z,26.23
2023-02-11T12:46:15.463Z,22.00
2023-02-11T12:49:20.268Z,24.87
2023-02-11T12:52:24.415Z,25.07
2023-02-11T12:55:06.013Z,25.33
2023-02-11T12:57:45.404Z,26.50
2023-02-11T13:00:26.733Z,26.20
2023-02-11T13:03:08.744Z,26.90
2023-02-11T13:05:50.217Z,28.23
2023-02-11T13:08:31.733Z,28.20
2023-02-11T13:11:14.327Z,25.10
2023-02-11T13:14:00.516Z,26.27
2023-02-11T13:16:40.625Z,25.77
2023-02-11T13:19:26.625Z,27.83
2023-02-11T13:22:12.968Z,26.83
2023-02-11T13:24:57.265Z,24.73
2023-02-11T13:27:43.035Z,26.43
2023-02-11T13:30:30.994Z,23.40
2023-02-11T13:33:44.448Z,25.07
2023-02-11T13:36:25.396Z,24.77
2023-02-11T13:39:03.814Z,25.17
2023-02-11T13:41:43.614Z,25.30
2023-02-11T13:44:29.656Z,26.00
2023-02-11T13:47:06.264Z,24.63
2023-02-11T13:49:43.312Z,27.00
2023-02-11T13:52:27.135Z,28.60
2023-02-11T13:55:09.566Z,28.63
2023-02-11T13:57:44.566Z,27.80
2023-02-11T14:00:53.093Z,27.73
2023-02-11T14:03:53.968Z,25.50
2023-02-11T14:07:02.361Z,25.53
2023-02-11T14:09:41.654Z,26.73
2023-02-11T14:12:43.521Z,27.47
2023-02-11T14:15:28.814Z,26.87
2023-02-11T14:18:02.433Z,27.10
2023-02-11T14:20:45.470Z,30.47
2023-02-11T14:23:28.671Z,27.63
2023-02-11T14:26:30.677Z,27.93
2023-02-11T14:29:17.619Z,26.87
2023-02-11T14:32:05.979Z,24.63
2023-02-11T14:34:53.892Z,25.07
2023-02-11T14:37:50.360Z,24.37
2023-02-11T14:40:33.230Z,23.97
2023-02-11T14:43:15.221Z,26.23
2023-02-11T14:45:57.173Z,26.53
2023-02-11T14:48:36.249Z,24.67
2023-02-11T14:51:15.000Z,26.27
2023-02-11T14:53:53.218Z,27.43
2023-02-11T14:56:31.101Z,25.30
2023-02-11T14:59:04.665Z,24.13
2023-02-11T15:01:43.819Z,25.00
2023-02-11T15:04:28.456Z,23.87
2023-02-11T15:07:12.293Z,24.53
2023-02-11T15:09:51.100Z,23.87
2023-02-11T15:12:29.222Z,21.80
2023-02-11T15:15:03.228Z,22.30
2023-02-11T15:17:37.548Z,22.30
2023-02-11T15:20:25.647Z,19.17
2023-02-11T15:23:03.223Z,20.73
2023-02-11T15:25:46.312Z,20.03
2023-02-11T15:28:25.508Z,20.00
2023-02-11T15:31:02.344Z,20.27
2023-02-11T15:33:35.795Z,19.90
2023-02-11T15:36:13.470Z,20.53
2023-02-11T15:38:47.107Z,18.87
2023-02-11T15:41:38.359Z,18.77
2023-02-11T15:44:31.366Z,18.43
2023-02-11T15:47:11.942Z,19.33
2023-02-11T15:49:48.384Z,18.87
2023-02-11T15:52:29.152Z,19.33
2023-02-11T15:55:04.325Z,18.03
2023-02-11T15:57:38.001Z,19.70
2023-02-11T16:00:19.155Z,18.90
2023-02-11T16:02:53.441Z,19.73
2023-02-11T16:05:32.522Z,20.20
2023-02-11T16:08:25.451Z,20.10
2023-02-11T16:11:03.370Z,19.50
2023-02-11T16:13:48.752Z,18.67
2023-02-11T16:16:26.273Z,19.37
2023-02-11T16:19:05.386Z,20.43
2023-02-11T16:21:47.051Z,20.27
2023-02-11T16:24:28.114Z,20.13
2023-02-11T16:27:05.213Z,20.07
2023-02-11T16:29:39.210Z,18.57
2023-02-11T16:32:24.459Z,19.87
2023-02-11T16:35:01.887Z,20.03
2023-02-11T16:37:35.467Z,19.73
2023-02-11T16:40:14.270Z,20.30
2023-02-11T16:42:47.845Z,20.57
2023-02-11T16:45:21.811Z,21.93
2023-02-11T16:47:55.519Z,20.80
2023-02-11T16:50:30.374Z,21.90
2023-02-11T16:53:06.565Z,21.70
2023-02-11T16:55:41.745Z,20.27
2023-02-11T16:58:15.335Z,20.93
2023-02-11T17:00:51.487Z,21.33
2023-02-11T17:03:30.311Z,20.23
2023-02-11T17:06:07.364Z,19.50
2023-02-11T17:08:41.847Z,20.63
2023-02-11T17:11:18.239Z,20.40
2023-02-11T17:13:51.916Z,22.03
2023-02-11T17:16:27.717Z,20.80
2023-02-11T17:19:01.124Z,20.47
2023-02-11T17:21:35.437Z,21.63
2023-02-11T17:24:09.359Z,21.20
2023-02-11T17:26:45.803Z,19.97
2023-02-11T17:29:23.201Z,20.27
2023-02-11T17:31:57.220Z,19.37
2023-02-11T17:34:32.451Z,19.67
2023-02-11T17:37:09.243Z,19.33
2023-02-11T17:39:42.972Z,19.70
2023-02-11T17:42:20.181Z,20.63
2023-02-11T17:44:53.793Z,19.33
2023-02-11T17:47:28.354Z,20.27
2023-02-11T17:50:03.474Z,20.33
2023-02-11T17:52:37.858Z,19.80
2023-02-11T17:55:11.839Z,20.57
2023-02-11T17:57:47.206Z,21.07
2023-02-11T18:00:23.174Z,20.23
2023-02-11T18:02:57.873Z,20.63
2023-02-11T18:05:36.635Z,21.20
2023-02-11T18:08:09.932Z,20.73
2023-02-11T18:10:43.769Z,22.40
2023-02-11T18:13:18.726Z,21.17
2023-02-11T18:15:53.015Z,21.13
2023-02-11T18:18:26.825Z,20.37
2023-02-11T18:21:03.912Z,19.80
2023-02-11T18:23:37.794Z,21.47
2023-02-11T18:26:13.024Z,20.33
2023-02-11T18:28:48.885Z,20.60
2023-02-11T18:31:23.166Z,21.67
2023-02-11T18:33:56.833Z,22.13
2023-02-11T18:36:30.409Z,21.77
2023-02-11T18:39:05.885Z,22.40
2023-02-11T18:41:41.350Z,21.50
2023-02-11T18:44:22.120Z,20.37
2023-02-11T18:46:56.109Z,21.90
2023-02-11T18:49:30.177Z,22.87
2023-02-11T18:52:04.066Z,22.33
2023-02-11T18:54:37.686Z,20.83
2023-02-11T18:57:11.218Z,20.83
2023-02-11T18:59:46.124Z,22.83
2023-02-11T19:02:20.394Z,23.83
2023-02-11T19:04:53.868Z,21.97
2023-02-11T19:07:27.462Z,22.73
2023-02-11T19:10:01.539Z,21.03
2023-02-11T19:12:35.274Z,22.17
2023-02-11T19:15:11.493Z,23.17
2023-02-11T19:17:45.157Z,22.37
2023-02-11T19:20:19.636Z,23.43
2023-02-11T19:22:53.370Z,23.80
2023-02-11T19:25:27.216Z,24.63
2023-02-11T19:28:00.695Z,26.00
2023-02-11T19:30:37.606Z,26.17
2023-02-11T19:33:11.173Z,25.53
2023-02-11T19:35:45.418Z,26.17
2023-02-11T19:38:19.191Z,24.70
2023-02-11T19:40:58.182Z,23.10
2023-02-11T19:43:32.265Z,24.63
2023-02-11T19:46:08.103Z,24.87
2023-02-11T19:48:42.118Z,26.33
2023-02-11T19:51:15.682Z,25.03
2023-02-11T19:53:51.130Z,25.30
2023-02-11T19:56:25.046Z,26.03
2023-02-11T19:58:59.596Z,23.53
2023-02-11T20:01:34.853Z,25.43
2023-02-11T20:04:08.856Z,23.40
2023-02-11T20:06:42.350Z,24.20
2023-02-11T20:09:17.829Z,25.73
2023-02-11T20:11:51.335Z,24.60
2023-02-11T20:14:27.843Z,25.40
2023-02-11T20:17:03.256Z,24.93
2023-02-11T20:19:37.541Z,25.90
2023-02-11T20:22:11.129Z,25.67
2023-02-11T20:24:44.814Z,25.07
2023-02-11T20:27:20.066Z,26.40
2023-02-11T20:29:53.803Z,25.30
2023-02-11T20:32:30.616Z,26.33
2023-02-11T20:35:07.427Z,27.20
2023-02-11T20:37:43.783Z,26.50
2023-02-11T20:40:18.515Z,26.90
2023-02-11T20:42:53.310Z,26.03
2023-02-11T20:45:27.136Z,25.70
2023-02-11T20:48:02.458Z,26.33
2023-02-11T20:50:36.824Z,27.37
2023-02-11T20:53:11.493Z,24.70
2023-02-11T20:55:45.634Z,25.07
2023-02-11T20:58:19.503Z,27.67
2023-02-11T21:00:53.699Z,26.73
2023-02-11T21:03:29.058Z,26.13
2023-02-11T21:06:03.533Z,27.17
2023-02-11T21:08:37.181Z,25.67
2023-02-11T21:11:11.265Z,26.63
2023-02-11T21:13:45.565Z,26.83
2023-02-11T21:16:22.520Z,26.53
2023-02-11T21:18:57.453Z,26.70
2023-02-11T21:21:31.787Z,28.50
2023-02-11T21:24:06.311Z,25.33
2023-02-11T21:26:41.784Z,24.43
2023-02-11T21:29:15.237Z,27.20
2023-02-11T21:31:49.653Z,25.90
2023-02-11T21:34:24.609Z,23.87
2023-02-11T21:36:58.148Z,25.80
2023-02-11T21:39:31.807Z,24.67
2023-02-11T21:42:05.936Z,22.63
2023-02-11T21:44:39.417Z,26.03
2023-02-11T21:47:13.018Z,25.90
2023-02-11T21:49:48.324Z,24.57
2023-02-11T21:52:21.943Z,24.60
2023-02-11T21:54:55.561Z,25.93
2023-02-11T21:57:28.987Z,22.67
2023-02-11T22:00:02.449Z,24.27
2023-02-11T22:02:37.219Z,25.13
2023-02-11T22:05:11.957Z,23.20
2023-02-11T22:07:45.600Z,25.57
2023-02-11T22:10:19.667Z,25.47
2023-02-11T22:12:53.443Z,24.57
2023-02-11T22:15:30.132Z,23.80
2023-02-11T22:18:03.863Z,24.03
2023-02-11T22:20:40.881Z,23.83
2023-02-11T22:23:14.220Z,23.57
2023-02-11T22:25:47.621Z,24.97
2023-02-11T22:28:21.234Z,22.97
2023-02-11T22:30:56.824Z,24.50
2023-02-11T22:33:30.619Z,23.80
2023-02-11T22:36:10.471Z,24.10
2023-02-11T22:38:44.061Z,23.40
2023-02-11T22:41:18.717Z,22.30
2023-02-11T22:43:52.263Z,23.03
2023-02-11T22:46:26.558Z,24.00
2023-02-11T22:49:00.419Z,27.20
2023-02-11T22:51:36.020Z,23.83
2023-02-11T22:54:15.283Z,25.23
2023-02-11T22:56:53.332Z,23.57
2023-02-11T22:59:27.437Z,23.87
2023-02-11T23:02:02.248Z,23.23
2023-02-11T23:04:35.959Z,23.13
2023-02-11T23:07:11.143Z,22.10
2023-02-11T23:09:45.201Z,23.63
2023-02-11T23:12:18.549Z,23.47
2023-02-11T23:14:52.802Z,21.70
2023-02-11T23:17:28.992Z,20.40
2023-02-11T23:20:03.282Z,21.63
2023-02-11T23:22:38.337Z,21.30
2023-02-11T23:25:12.133Z,21.73
2023-02-11T23:27:45.592Z,22.63
2023-02-11T23:30:20.707Z,22.77
2023-02-11T23:33:19.332Z,22.00
2023-02-11T23:35:52.763Z,21.47
2023-02-11T23:38:27.772Z,22.47
2023-02-11T23:41:01.314Z,19.53
2023-02-11T23:43:35.397Z,21.87
2023-02-11T23:46:09.898Z,21.90
2023-02-11T23:48:43.600Z,20.97
2023-02-11T23:51:19.057Z,21.43
2023-02-11T23:53:56.266Z,23.17
2023-02-11T23:56:30.996Z,21.73
2023-02-11T23:59:04.524Z,20.43
